James City, Pennsylvania
Current Conditions -  °F | °C
As of 5:53 AM on Thursday 27 Nov 2014 (Local Time) from KBFD Reporting Station
Overcast Overcast  
Wind Chill: 26°   Ceiling: 1100
Heat Index: 26°   Visibility: 10mi
Dew Point: 22°   Wind: 0mph
Humidity: 84%   Direction: NA
Pressure: 29.95"   Gusts: NA
Location:  41.62°N, 78.84°W
Report Text: KBFD 271053Z AUTO 00000KT 10SM OVC011 M03/M06 A2995 RMK AO2 SLP162 T10331056
Loading
Personal Weather Stations






























Interactive Weather Map New forecast layout! Learn more

10-Day Weather Forecast

Advertisements
Track Severe Weather on mobile